createdAt,value
2017-11-14T00:00:06.368Z,927.4
2017-11-14T00:00:19.887Z,927.42
2017-11-14T00:00:33.334Z,927.4
2017-11-14T00:00:46.747Z,927.41
2017-11-14T00:00:59.117Z,927.42
2017-11-14T00:01:12.025Z,927.44
2017-11-14T00:01:25.498Z,927.42
2017-11-14T00:01:37.892Z,927.42
2017-11-14T00:01:51.408Z,927.41
2017-11-14T00:02:04.329Z,927.42
2017-11-14T00:02:17.246Z,927.41
2017-11-14T00:02:30.698Z,927.43
2017-11-14T00:02:44.125Z,927.39
2017-11-14T00:02:57.612Z,927.4
2017-11-14T00:03:10.469Z,927.41
2017-11-14T00:03:24.008Z,927.5
2017-11-14T00:03:37.706Z,927.4
2017-11-14T00:03:51.155Z,927.39
2017-11-14T00:04:04.701Z,927.41
2017-11-14T00:04:17.599Z,927.42
2017-11-14T00:04:31.061Z,927.43
2017-11-14T00:04:44.556Z,927.45
2017-11-14T00:04:58.074Z,927.42
2017-11-14T00:05:11.055Z,927.41
2017-11-14T00:05:24.763Z,927.41
2017-11-14T00:05:38.294Z,927.4
2017-11-14T00:05:51.792Z,927.4
2017-11-14T00:06:05.223Z,927.45
2017-11-14T00:06:18.122Z,927.41
2017-11-14T00:06:31.609Z,927.43
2017-11-14T00:06:45.132Z,927.41
2017-11-14T00:06:58.061Z,927.41
2017-11-14T00:07:11.116Z,927.43
2017-11-14T00:07:24.581Z,927.42
2017-11-14T00:07:37.548Z,927.44
2017-11-14T00:07:51.041Z,927.42
2017-11-14T00:08:03.972Z,927.39
2017-11-14T00:08:17.441Z,927.42
2017-11-14T00:08:31.021Z,927.4
2017-11-14T00:08:43.975Z,927.4
2017-11-14T00:08:56.921Z,927.39
2017-11-14T00:09:09.271Z,927.39
2017-11-14T00:09:22.755Z,927.43
2017-11-14T00:09:36.225Z,927.4
2017-11-14T00:09:49.712Z,927.42
2017-11-14T00:10:02.058Z,927.38
2017-11-14T00:10:14.450Z,927.42
2017-11-14T00:10:27.990Z,927.39
2017-11-14T00:10:41.438Z,927.43
2017-11-14T00:10:54.920Z,927.44
2017-11-14T00:11:08.383Z,927.44
2017-11-14T00:11:21.332Z,927.4
2017-11-14T00:11:34.271Z,927.36
2017-11-14T00:11:47.236Z,927.39
2017-11-14T00:12:00.644Z,927.46
2017-11-14T00:12:14.108Z,927.42
2017-11-14T00:12:27.577Z,927.43
2017-11-14T00:12:41.004Z,927.43
2017-11-14T00:12:54.487Z,927.41
2017-11-14T00:13:08.021Z,927.41
2017-11-14T00:13:21.455Z,927.41
2017-11-14T00:13:34.383Z,927.42
2017-11-14T00:13:47.298Z,927.41
2017-11-14T00:14:00.240Z,927.43
2017-11-14T00:14:12.086Z,927.45
2017-11-14T00:14:25.494Z,927.44
2017-11-14T00:14:38.433Z,927.43
2017-11-14T00:14:51.914Z,927.44
2017-11-14T00:15:04.894Z,927.42
2017-11-14T00:15:18.351Z,927.43
2017-11-14T00:15:31.803Z,927.42
2017-11-14T00:15:45.246Z,927.44
2017-11-14T00:15:58.726Z,927.42
2017-11-14T00:16:12.146Z,927.46
2017-11-14T00:16:25.592Z,927.47
2017-11-14T00:16:39.028Z,927.48
2017-11-14T00:16:51.950Z,927.49
2017-11-14T00:17:04.863Z,927.5
2017-11-14T00:17:17.729Z,927.48
2017-11-14T00:17:30.146Z,927.45
2017-11-14T00:17:43.604Z,927.45
2017-11-14T00:17:57.038Z,927.45
2017-11-14T00:18:10.541Z,927.47
2017-11-14T00:18:23.481Z,927.44
2017-11-14T00:18:36.942Z,927.43
2017-11-14T00:18:50.841Z,927.45
2017-11-14T00:19:04.365Z,927.47
2017-11-14T00:19:17.861Z,927.44
2017-11-14T00:19:31.327Z,927.45
2017-11-14T00:19:43.741Z,927.46
2017-11-14T00:19:57.251Z,927.47
2017-11-14T00:20:10.231Z,927.48
2017-11-14T00:20:23.682Z,927.44
2017-11-14T00:20:36.576Z,927.47
2017-11-14T00:20:50.008Z,927.47
2017-11-14T00:21:03.488Z,927.45
2017-11-14T00:21:15.846Z,927.45
2017-11-14T00:21:29.341Z,927.44
2017-11-14T00:21:42.277Z,927.47
2017-11-14T00:21:55.740Z,927.46
2017-11-14T00:22:08.682Z,927.46
2017-11-14T00:22:22.193Z,927.47
2017-11-14T00:22:35.167Z,927.46
2017-11-14T00:22:48.616Z,927.44
2017-11-14T00:23:00.981Z,927.48
2017-11-14T00:23:14.413Z,927.47
2017-11-14T00:23:27.364Z,927.47
2017-11-14T00:23:40.836Z,927.48
2017-11-14T00:23:54.317Z,927.49
2017-11-14T00:24:07.298Z,927.47
2017-11-14T00:24:20.783Z,927.48
2017-11-14T00:24:34.272Z,927.48
2017-11-14T00:24:47.768Z,927.49
2017-11-14T00:25:00.762Z,927.48
2017-11-14T00:25:13.737Z,927.49
2017-11-14T00:25:26.638Z,927.49
2017-11-14T00:25:38.975Z,927.49
2017-11-14T00:25:52.455Z,927.46
2017-11-14T00:26:05.911Z,927.47
2017-11-14T00:26:19.372Z,927.5
2017-11-14T00:26:32.841Z,927.48
2017-11-14T00:26:46.397Z,927.51
2017-11-14T00:26:59.900Z,927.49
2017-11-14T00:27:12.825Z,927.52
2017-11-14T00:27:25.220Z,927.53
2017-11-14T00:27:38.165Z,927.51
2017-11-14T00:27:51.628Z,927.52
2017-11-14T00:28:05.150Z,927.53
2017-11-14T00:28:18.109Z,927.49
2017-11-14T00:28:31.571Z,927.48
2017-11-14T00:28:45.116Z,927.5
2017-11-14T00:28:58.546Z,927.5
2017-11-14T00:29:11.499Z,927.49
2017-11-14T00:29:24.968Z,927.49
2017-11-14T00:29:37.946Z,927.47
2017-11-14T00:29:51.435Z,927.52
2017-11-14T00:30:04.968Z,927.48
2017-11-14T00:30:19.461Z,927.47
2017-11-14T00:30:32.357Z,927.49
2017-11-14T00:30:45.328Z,927.52
2017-11-14T00:30:58.799Z,927.52
2017-11-14T00:31:11.717Z,927.46
2017-11-14T00:31:25.235Z,927.48
2017-11-14T00:31:37.085Z,927.52
2017-11-14T00:31:50.569Z,927.49
2017-11-14T00:32:04.063Z,927.5
2017-11-14T00:32:17.499Z,927.48
2017-11-14T00:32:31.045Z,927.5
2017-11-14T00:32:44.149Z,927.5
2017-11-14T00:32:57.614Z,927.51
2017-11-14T00:33:11.119Z,927.52
2017-11-14T00:33:24.504Z,927.51
2017-11-14T00:33:36.906Z,927.52
2017-11-14T00:33:50.243Z,927.49
2017-11-14T00:34:03.188Z,927.49
2017-11-14T00:34:16.627Z,927.52
2017-11-14T00:34:30.090Z,927.51
2017-11-14T00:34:43.574Z,927.48
2017-11-14T00:34:56.467Z,927.49
2017-11-14T00:35:09.339Z,927.53
2017-11-14T00:35:22.277Z,927.48
2017-11-14T00:35:35.202Z,927.49
2017-11-14T00:35:48.582Z,927.51
2017-11-14T00:36:02.094Z,927.51
2017-11-14T00:36:14.454Z,927.46
2017-11-14T00:36:27.937Z,927.5
2017-11-14T00:36:40.342Z,927.49
2017-11-14T00:36:53.851Z,927.51
2017-11-14T00:37:07.373Z,927.52
2017-11-14T00:37:20.864Z,927.51
2017-11-14T00:37:34.352Z,927.52
2017-11-14T00:37:47.280Z,927.48
2017-11-14T00:38:00.734Z,927.5
2017-11-14T00:38:13.087Z,927.49
2017-11-14T00:38:26.042Z,927.53
2017-11-14T00:38:39.526Z,927.52
2017-11-14T00:38:52.515Z,927.53
2017-11-14T00:39:06.003Z,927.53
2017-11-14T00:39:18.979Z,927.55
2017-11-14T00:39:32.395Z,927.56
2017-11-14T00:39:45.800Z,927.56
2017-11-14T00:39:58.776Z,927.55
2017-11-14T00:40:11.737Z,927.58
2017-11-14T00:40:24.617Z,927.56
2017-11-14T00:40:38.014Z,927.56
2017-11-14T00:40:50.887Z,927.53
2017-11-14T00:41:03.807Z,927.54
2017-11-14T00:41:16.776Z,927.55
2017-11-14T00:41:30.453Z,927.56
2017-11-14T00:41:43.938Z,927.54
2017-11-14T00:41:56.888Z,927.56
2017-11-14T00:42:10.356Z,927.59
2017-11-14T00:42:23.309Z,927.6
2017-11-14T00:42:36.249Z,927.58
2017-11-14T00:42:49.758Z,927.58
2017-11-14T00:43:03.219Z,927.57
2017-11-14T00:43:16.161Z,927.57
2017-11-14T00:43:29.662Z,927.58
2017-11-14T00:43:42.568Z,927.56
2017-11-14T00:43:56.064Z,927.62
2017-11-14T00:44:09.567Z,927.61
2017-11-14T00:44:22.977Z,927.59
2017-11-14T00:44:35.377Z,927.59
2017-11-14T00:44:48.829Z,927.62
2017-11-14T00:45:02.275Z,927.6
2017-11-14T00:45:15.185Z,927.59
2017-11-14T00:45:28.090Z,927.59
2017-11-14T00:45:41.065Z,927.58
2017-11-14T00:45:54.567Z,927.62
2017-11-14T00:46:06.919Z,927.59
2017-11-14T00:46:19.799Z,927.6
2017-11-14T00:46:33.291Z,927.59
2017-11-14T00:46:46.177Z,927.6
2017-11-14T00:46:59.150Z,927.56
2017-11-14T00:47:12.094Z,927.56
2017-11-14T00:47:25.620Z,927.58
2017-11-14T00:47:38.506Z,927.59
2017-11-14T00:47:51.411Z,927.6
2017-11-14T00:48:04.392Z,927.57
2017-11-14T00:48:17.869Z,927.55
2017-11-14T00:48:30.836Z,927.59
2017-11-14T00:48:44.327Z,927.58
2017-11-14T00:48:57.463Z,927.56
2017-11-14T00:49:10.969Z,927.58
2017-11-14T00:49:24.418Z,927.58
2017-11-14T00:49:36.770Z,927.58
2017-11-14T00:49:50.281Z,927.55
2017-11-14T00:50:03.810Z,927.58
2017-11-14T00:50:16.205Z,927.6
2017-11-14T00:50:29.623Z,927.6
2017-11-14T00:50:42.517Z,927.63
2017-11-14T00:50:55.981Z,927.62
2017-11-14T00:51:09.491Z,927.65
2017-11-14T00:51:22.487Z,927.58
2017-11-14T00:51:36.017Z,927.59
2017-11-14T00:51:48.954Z,927.63
2017-11-14T00:52:01.871Z,927.63
2017-11-14T00:52:14.848Z,927.62
2017-11-14T00:52:28.330Z,927.64
2017-11-14T00:52:41.207Z,927.63
2017-11-14T00:52:54.637Z,927.59
2017-11-14T00:53:08.103Z,927.65
2017-11-14T00:53:21.525Z,927.6
2017-11-14T00:53:34.471Z,927.64
2017-11-14T00:53:47.369Z,927.63
2017-11-14T00:54:01.091Z,927.62
2017-11-14T00:54:14.531Z,927.64
2017-11-14T00:54:27.998Z,927.65
2017-11-14T00:54:40.952Z,927.68
2017-11-14T00:54:53.890Z,927.65
2017-11-14T00:55:07.402Z,927.65
2017-11-14T00:55:20.892Z,927.66
2017-11-14T00:55:34.381Z,927.65
2017-11-14T00:55:46.754Z,927.62
2017-11-14T00:56:00.228Z,927.67
2017-11-14T00:56:13.207Z,927.67
2017-11-14T00:56:26.683Z,927.66
2017-11-14T00:56:40.142Z,927.66
2017-11-14T00:56:52.542Z,927.69
2017-11-14T00:57:05.972Z,927.66
2017-11-14T00:57:19.464Z,927.66
2017-11-14T00:57:32.948Z,927.69
2017-11-14T00:57:46.461Z,927.67
2017-11-14T00:57:59.986Z,927.66
2017-11-14T00:58:12.912Z,927.66
2017-11-14T00:58:26.386Z,927.66
2017-11-14T00:58:39.838Z,927.66
2017-11-14T00:58:53.290Z,927.69
2017-11-14T00:59:06.842Z,927.69
2017-11-14T00:59:20.368Z,927.67
2017-11-14T00:59:33.299Z,927.65
2017-11-14T00:59:46.287Z,927.68
2017-11-14T00:59:59.221Z,927.66
2017-11-14T01:00:12.670Z,927.67
2017-11-14T01:00:26.134Z,927.65
2017-11-14T01:00:39.637Z,927.69
2017-11-14T01:00:53.032Z,927.66
2017-11-14T01:01:06.491Z,927.65
2017-11-14T01:01:19.907Z,927.65
2017-11-14T01:01:32.831Z,927.69
2017-11-14T01:01:45.795Z,927.64
2017-11-14T01:01:59.225Z,927.63
2017-11-14T01:02:11.630Z,927.64
2017-11-14T01:02:25.119Z,927.61
2017-11-14T01:02:38.576Z,927.63
2017-11-14T01:02:51.497Z,927.68
2017-11-14T01:03:04.955Z,927.65
2017-11-14T01:03:17.858Z,927.63
2017-11-14T01:03:31.338Z,927.62
2017-11-14T01:03:43.709Z,927.67
2017-11-14T01:03:56.638Z,927.61
2017-11-14T01:04:09.860Z,927.66
2017-11-14T01:04:22.798Z,927.66
2017-11-14T01:04:36.246Z,927.66
2017-11-14T01:04:49.669Z,927.66
2017-11-14T01:05:03.127Z,927.67
2017-11-14T01:05:16.549Z,927.63
2017-11-14T01:05:29.477Z,927.62
2017-11-14T01:05:42.957Z,927.65
2017-11-14T01:05:55.353Z,927.65
2017-11-14T01:06:08.309Z,927.64
2017-11-14T01:06:21.839Z,927.65
2017-11-14T01:06:35.323Z,927.65
2017-11-14T01:06:47.721Z,927.68
2017-11-14T01:07:01.199Z,927.67
2017-11-14T01:07:14.677Z,927.62
2017-11-14T01:07:27.038Z,927.67
2017-11-14T01:07:39.967Z,927.65
2017-11-14T01:07:53.446Z,927.64
2017-11-14T01:08:06.931Z,927.66
2017-11-14T01:08:19.834Z,927.65
2017-11-14T01:08:33.266Z,927.65
2017-11-14T01:08:46.731Z,927.67
2017-11-14T01:08:59.090Z,927.69
2017-11-14T01:09:12.622Z,927.69
2017-11-14T01:09:26.064Z,927.69
2017-11-14T01:09:39.551Z,927.68
2017-11-14T01:09:51.907Z,927.66
2017-11-14T01:10:05.373Z,927.7
2017-11-14T01:10:18.354Z,927.65
2017-11-14T01:10:31.810Z,927.66
2017-11-14T01:10:44.170Z,927.65
2017-11-14T01:10:57.045Z,927.68
2017-11-14T01:11:10.541Z,927.67
2017-11-14T01:11:23.537Z,927.71
2017-11-14T01:11:36.978Z,927.69
2017-11-14T01:11:50.517Z,927.63
2017-11-14T01:12:04.052Z,927.68
2017-11-14T01:12:17.586Z,927.66
2017-11-14T01:12:31.069Z,927.64
2017-11-14T01:12:44.543Z,927.65
2017-11-14T01:12:57.503Z,927.64
2017-11-14T01:13:09.907Z,927.65
2017-11-14T01:13:23.322Z,927.68
2017-11-14T01:13:36.222Z,927.71
2017-11-14T01:13:49.152Z,927.71
2017-11-14T01:14:02.666Z,927.68
2017-11-14T01:14:15.644Z,927.71
2017-11-14T01:14:29.108Z,927.65
2017-11-14T01:14:41.499Z,927.67
2017-11-14T01:14:54.454Z,927.67
2017-11-14T01:15:07.941Z,927.7
2017-11-14T01:15:20.827Z,927.68
2017-11-14T01:15:33.733Z,927.7
2017-11-14T01:15:46.642Z,927.71
2017-11-14T01:15:59.556Z,927.69
2017-11-14T01:16:12.431Z,927.66
2017-11-14T01:16:25.936Z,927.68
2017-11-14T01:16:39.390Z,927.7
2017-11-14T01:16:52.860Z,927.7
2017-11-14T01:17:05.797Z,927.66
2017-11-14T01:17:19.184Z,927.64
2017-11-14T01:17:32.695Z,927.69
2017-11-14T01:17:46.145Z,927.71
2017-11-14T01:17:59.645Z,927.67
2017-11-14T01:18:13.074Z,927.63
2017-11-14T01:18:26.529Z,927.71
2017-11-14T01:18:38.347Z,927.66
2017-11-14T01:18:51.838Z,927.69
2017-11-14T01:19:04.798Z,927.71
2017-11-14T01:19:18.435Z,927.65
2017-11-14T01:19:31.336Z,927.69
2017-11-14T01:19:44.290Z,927.69
2017-11-14T01:19:57.828Z,927.68
2017-11-14T01:20:11.351Z,927.67
2017-11-14T01:20:24.807Z,927.64
2017-11-14T01:20:38.301Z,927.66
2017-11-14T01:20:51.750Z,927.66
2017-11-14T01:21:05.238Z,927.7
2017-11-14T01:21:18.681Z,927.71
2017-11-14T01:21:32.176Z,927.72
2017-11-14T01:21:45.635Z,927.7
2017-11-14T01:21:58.538Z,927.7
2017-11-14T01:22:13.427Z,927.67
2017-11-14T01:22:26.383Z,927.7
2017-11-14T01:22:39.328Z,927.68
2017-11-14T01:22:52.803Z,927.66
2017-11-14T01:23:06.289Z,927.67
2017-11-14T01:23:19.280Z,927.65
2017-11-14T01:23:32.720Z,927.67
2017-11-14T01:23:45.678Z,927.65
2017-11-14T01:23:58.660Z,927.69
2017-11-14T01:24:11.663Z,927.69
2017-11-14T01:24:25.146Z,927.69
2017-11-14T01:24:38.632Z,927.7
2017-11-14T01:24:52.012Z,927.69
2017-11-14T01:25:04.975Z,927.69
2017-11-14T01:25:18.449Z,927.7
2017-11-14T01:25:31.940Z,927.66
2017-11-14T01:25:44.340Z,927.7
2017-11-14T01:25:57.226Z,927.7
2017-11-14T01:26:10.190Z,927.68
2017-11-14T01:26:23.710Z,927.72
2017-11-14T01:26:37.138Z,927.68
2017-11-14T01:26:49.508Z,927.72
2017-11-14T01:27:02.375Z,927.7
2017-11-14T01:27:15.918Z,927.69
2017-11-14T01:27:29.404Z,927.7
2017-11-14T01:27:42.373Z,927.69
2017-11-14T01:27:55.297Z,927.69
2017-11-14T01:28:08.818Z,927.73
2017-11-14T01:28:21.768Z,927.67
2017-11-14T01:28:35.278Z,927.67
2017-11-14T01:28:48.197Z,927.66
2017-11-14T01:29:01.681Z,927.68
2017-11-14T01:29:14.562Z,927.67
2017-11-14T01:29:28.081Z,927.69
2017-11-14T01:29:41.039Z,927.68
2017-11-14T01:29:54.516Z,927.72
2017-11-14T01:30:07.996Z,927.66
2017-11-14T01:30:21.487Z,927.67
2017-11-14T01:30:34.401Z,927.68
2017-11-14T01:30:47.325Z,927.72
2017-11-14T01:31:00.753Z,927.73
2017-11-14T01:31:13.690Z,927.7
2017-11-14T01:31:27.193Z,927.71
2017-11-14T01:31:40.665Z,927.7
2017-11-14T01:31:54.162Z,927.66
2017-11-14T01:32:07.626Z,927.68
2017-11-14T01:32:20.572Z,927.68
2017-11-14T01:32:33.533Z,927.68
2017-11-14T01:32:47.023Z,927.67
2017-11-14T01:32:59.917Z,927.71
2017-11-14T01:33:12.838Z,927.65
2017-11-14T01:33:26.291Z,927.68
2017-11-14T01:33:39.250Z,927.74
2017-11-14T01:33:52.199Z,927.68
2017-11-14T01:34:05.187Z,927.66
2017-11-14T01:34:18.181Z,927.69
2017-11-14T01:34:31.679Z,927.7
2017-11-14T01:34:45.193Z,927.69
2017-11-14T01:34:58.621Z,927.71
2017-11-14T01:35:12.057Z,927.69
2017-11-14T01:35:28.532Z,927.69
2017-11-14T01:35:41.417Z,927.68
2017-11-14T01:35:54.353Z,927.69
2017-11-14T01:36:07.302Z,927.7
2017-11-14T01:36:20.773Z,927.7
2017-11-14T01:36:33.715Z,927.64
2017-11-14T01:36:46.622Z,927.7
2017-11-14T01:37:00.081Z,927.67
2017-11-14T01:37:13.568Z,927.67
2017-11-14T01:37:27.075Z,927.68
2017-11-14T01:37:40.556Z,927.7
2017-11-14T01:37:54.005Z,927.68
2017-11-14T01:38:07.546Z,927.68
2017-11-14T01:38:21.102Z,927.67
2017-11-14T01:38:34.605Z,927.68
2017-11-14T01:38:48.102Z,927.69
2017-11-14T01:39:01.630Z,927.68
2017-11-14T01:39:14.564Z,927.69
2017-11-14T01:39:27.509Z,927.68
2017-11-14T01:39:40.445Z,927.71
2017-11-14T01:39:53.367Z,927.69
2017-11-14T01:40:06.796Z,927.68
2017-11-14T01:40:19.744Z,927.68
2017-11-14T01:40:32.680Z,927.67
2017-11-14T01:40:46.179Z,927.7
2017-11-14T01:40:59.047Z,927.71
2017-11-14T01:41:12.584Z,927.71
2017-11-14T01:41:26.036Z,927.7
2017-11-14T01:41:38.915Z,927.69
2017-11-14T01:41:52.418Z,927.69
2017-11-14T01:42:05.909Z,927.69
2017-11-14T01:42:18.891Z,927.71
2017-11-14T01:42:32.330Z,927.72
2017-11-14T01:42:45.273Z,927.65
2017-11-14T01:42:58.780Z,927.71
2017-11-14T01:43:12.263Z,927.72
2017-11-14T01:43:25.151Z,927.7
2017-11-14T01:43:38.119Z,927.67
2017-11-14T01:43:51.070Z,927.69
2017-11-14T01:44:03.977Z,927.67
2017-11-14T01:44:16.821Z,927.68
2017-11-14T01:44:29.193Z,927.66
2017-11-14T01:44:41.601Z,927.68
2017-11-14T01:44:54.495Z,927.7
2017-11-14T01:45:07.973Z,927.69
2017-11-14T01:45:21.498Z,927.69
2017-11-14T01:45:34.407Z,927.66
2017-11-14T01:45:46.844Z,927.67
2017-11-14T01:46:00.354Z,927.66
2017-11-14T01:46:13.253Z,927.66
2017-11-14T01:46:26.221Z,927.65
2017-11-14T01:46:39.721Z,927.69
2017-11-14T01:46:52.667Z,927.69
2017-11-14T01:47:06.104Z,927.69
2017-11-14T01:47:19.591Z,927.68
2017-11-14T01:47:33.038Z,927.66
2017-11-14T01:47:46.535Z,927.65
2017-11-14T01:47:59.976Z,927.65
2017-11-14T01:48:13.456Z,927.63
2017-11-14T01:48:26.947Z,927.65
2017-11-14T01:48:40.454Z,927.64
2017-11-14T01:48:53.353Z,927.65
2017-11-14T01:49:06.856Z,927.63
2017-11-14T01:49:19.828Z,927.64
2017-11-14T01:49:32.765Z,927.63
2017-11-14T01:49:46.183Z,927.66
2017-11-14T01:49:59.711Z,927.64
2017-11-14T01:50:13.203Z,927.65
2017-11-14T01:50:26.657Z,927.65
2017-11-14T01:50:39.534Z,927.63
2017-11-14T01:50:52.981Z,927.63
2017-11-14T01:51:06.482Z,927.62
2017-11-14T01:51:19.937Z,927.62
2017-11-14T01:51:33.426Z,927.63
2017-11-14T01:51:46.909Z,927.64
2017-11-14T01:52:00.410Z,927.63
2017-11-14T01:52:13.325Z,927.6
2017-11-14T01:52:26.163Z,927.63
2017-11-14T01:52:39.062Z,927.6
2017-11-14T01:52:52.525Z,927.64
2017-11-14T01:53:05.966Z,927.59
2017-11-14T01:53:19.443Z,927.61
2017-11-14T01:53:32.891Z,927.64
2017-11-14T01:53:46.443Z,927.62
2017-11-14T01:53:59.923Z,927.63
2017-11-14T01:54:11.715Z,927.65
2017-11-14T01:54:24.885Z,927.64
2017-11-14T01:54:38.337Z,927.64
2017-11-14T01:54:51.774Z,927.65
2017-11-14T01:55:05.227Z,927.63
2017-11-14T01:55:18.741Z,927.63
2017-11-14T01:55:32.180Z,927.61
2017-11-14T01:55:45.099Z,927.63
2017-11-14T01:55:58.013Z,927.63
2017-11-14T01:56:11.516Z,927.61
2017-11-14T01:56:23.917Z,927.63
2017-11-14T01:56:37.372Z,927.64
2017-11-14T01:56:50.275Z,927.63
2017-11-14T01:57:03.780Z,927.64
2017-11-14T01:57:17.242Z,927.63
2017-11-14T01:57:30.792Z,927.6
2017-11-14T01:57:43.144Z,927.6
2017-11-14T01:57:56.062Z,927.59
2017-11-14T01:58:09.594Z,927.62
2017-11-14T01:58:22.480Z,927.61
2017-11-14T01:58:35.409Z,927.61
2017-11-14T01:58:48.318Z,927.62
2017-11-14T01:59:01.247Z,927.64
2017-11-14T01:59:14.737Z,927.62
2017-11-14T01:59:27.703Z,927.62
2017-11-14T01:59:40.057Z,927.62
2017-11-14T01:59:52.384Z,927.62
2017-11-14T02:00:05.869Z,927.63
2017-11-14T02:00:19.361Z,927.61
2017-11-14T02:00:32.797Z,927.63
2017-11-14T02:00:45.697Z,927.63
2017-11-14T02:00:59.140Z,927.6
2017-11-14T02:01:12.598Z,927.6
2017-11-14T02:01:26.143Z,927.6
2017-11-14T02:01:39.620Z,927.56
2017-11-14T02:01:53.033Z,927.59
2017-11-14T02:02:05.443Z,927.63
2017-11-14T02:02:18.891Z,927.58
2017-11-14T02:02:32.369Z,927.62
2017-11-14T02:02:44.739Z,927.55
2017-11-14T02:02:58.145Z,927.58
2017-11-14T02:03:11.636Z,927.57
2017-11-14T02:03:24.568Z,927.58
2017-11-14T02:03:38.041Z,927.6
2017-11-14T02:03:50.911Z,927.59
2017-11-14T02:04:04.384Z,927.58
2017-11-14T02:04:17.835Z,927.59
2017-11-14T02:04:32.005Z,927.61
2017-11-14T02:04:45.479Z,927.6
2017-11-14T02:04:58.379Z,927.63
2017-11-14T02:05:11.379Z,927.63
2017-11-14T02:05:24.836Z,927.62
2017-11-14T02:05:38.293Z,927.62
2017-11-14T02:05:51.223Z,927.59
2017-11-14T02:06:04.672Z,927.56
2017-11-14T02:06:17.554Z,927.6
2017-11-14T02:06:31.037Z,927.59
2017-11-14T02:06:43.947Z,927.63
2017-11-14T02:06:57.434Z,927.61
2017-11-14T02:07:10.510Z,927.55
2017-11-14T02:07:23.995Z,927.6
2017-11-14T02:07:37.504Z,927.57
2017-11-14T02:07:50.393Z,927.57
2017-11-14T02:08:02.754Z,927.58
2017-11-14T02:08:15.711Z,927.55
2017-11-14T02:08:29.196Z,927.57
2017-11-14T02:08:42.101Z,927.58
2017-11-14T02:08:55.555Z,927.6
2017-11-14T02:09:08.464Z,927.56
2017-11-14T02:09:21.904Z,927.56
2017-11-14T02:09:35.390Z,927.57
2017-11-14T02:09:48.809Z,927.57
2017-11-14T02:10:02.302Z,927.58
2017-11-14T02:10:15.216Z,927.56
2017-11-14T02:10:28.672Z,927.54
2017-11-14T02:10:42.141Z,927.55
2017-11-14T02:10:55.613Z,927.56
2017-11-14T02:11:09.009Z,927.54
2017-11-14T02:11:21.978Z,927.56
2017-11-14T02:11:34.348Z,927.52
2017-11-14T02:11:46.712Z,927.53
2017-11-14T02:12:00.148Z,927.52
2017-11-14T02:12:13.691Z,927.55
2017-11-14T02:12:26.155Z,927.53
2017-11-14T02:12:39.680Z,927.56
2017-11-14T02:12:53.125Z,927.53
2017-11-14T02:13:06.034Z,927.54
2017-11-14T02:13:19.506Z,927.53
2017-11-14T02:13:32.457Z,927.51
2017-11-14T02:13:45.917Z,927.52
2017-11-14T02:13:58.879Z,927.56
2017-11-14T02:14:12.393Z,927.56
2017-11-14T02:14:24.731Z,927.53
2017-11-14T02:14:38.198Z,927.51
2017-11-14T02:14:51.657Z,927.51
2017-11-14T02:15:04.042Z,927.54
2017-11-14T02:15:17.522Z,927.52
2017-11-14T02:15:31.007Z,927.48
2017-11-14T02:15:44.487Z,927.46
2017-11-14T02:15:58.051Z,927.46
2017-11-14T02:16:11.529Z,927.48
2017-11-14T02:16:25.047Z,927.47
2017-11-14T02:16:38.137Z,927.48
2017-11-14T02:16:51.059Z,927.51
2017-11-14T02:17:04.543Z,927.5
2017-11-14T02:17:17.995Z,927.53
2017-11-14T02:17:31.578Z,927.52
2017-11-14T02:17:45.081Z,927.51
2017-11-14T02:17:58.083Z,927.48
2017-11-14T02:18:10.574Z,927.46
2017-11-14T02:18:24.085Z,927.5
2017-11-14T02:18:37.504Z,927.46
2017-11-14T02:18:50.469Z,927.48
2017-11-14T02:19:03.339Z,927.48
2017-11-14T02:19:16.870Z,927.48
2017-11-14T02:19:30.025Z,927.49
2017-11-14T02:19:43.490Z,927.47
2017-11-14T02:19:57.008Z,927.47
2017-11-14T02:20:10.476Z,927.45
2017-11-14T02:20:23.399Z,927.46
2017-11-14T02:20:36.816Z,927.47
2017-11-14T02:20:50.328Z,927.46
2017-11-14T02:21:03.258Z,927.41
2017-11-14T02:21:16.743Z,927.46
2017-11-14T02:21:30.239Z,927.47
2017-11-14T02:21:43.166Z,927.46
2017-11-14T02:21:56.090Z,927.46
2017-11-14T02:22:09.518Z,927.41
2017-11-14T02:22:22.403Z,927.46
2017-11-14T02:22:35.243Z,927.43
2017-11-14T02:22:48.742Z,927.43
2017-11-14T02:23:01.626Z,927.41
2017-11-14T02:23:14.623Z,927.44
2017-11-14T02:23:27.514Z,927.44
2017-11-14T02:23:40.391Z,927.44
2017-11-14T02:23:53.824Z,927.43
2017-11-14T02:24:06.753Z,927.42
2017-11-14T02:24:20.235Z,927.41
2017-11-14T02:24:33.788Z,927.42
2017-11-14T02:24:46.688Z,927.43
2017-11-14T02:25:00.196Z,927.44
2017-11-14T02:25:13.148Z,927.42
2017-11-14T02:25:26.644Z,927.45
2017-11-14T02:25:39.553Z,927.4
2017-11-14T02:25:53.087Z,927.41
2017-11-14T02:26:06.522Z,927.38
2017-11-14T02:26:19.402Z,927.43
2017-11-14T02:26:32.303Z,927.38
2017-11-14T02:26:45.759Z,927.4
2017-11-14T02:26:59.186Z,927.39
2017-11-14T02:27:12.670Z,927.4
2017-11-14T02:27:25.594Z,927.38
2017-11-14T02:27:39.013Z,927.39
2017-11-14T02:27:52.453Z,927.4
2017-11-14T02:28:05.944Z,927.35
2017-11-14T02:28:18.251Z,927.33
2017-11-14T02:28:31.209Z,927.37
2017-11-14T02:28:44.660Z,927.38
2017-11-14T02:28:58.171Z,927.35
2017-11-14T02:29:11.650Z,927.34
2017-11-14T02:29:25.169Z,927.43
2017-11-14T02:29:38.776Z,927.39
2017-11-14T02:29:52.290Z,927.36
2017-11-14T02:30:05.742Z,927.34
2017-11-14T02:30:18.690Z,927.36
2017-11-14T02:30:32.281Z,927.35
2017-11-14T02:30:45.704Z,927.33
2017-11-14T02:30:59.107Z,927.31
2017-11-14T02:31:12.036Z,927.35
2017-11-14T02:31:25.001Z,927.32
2017-11-14T02:31:38.496Z,927.3
2017-11-14T02:31:51.990Z,927.29
2017-11-14T02:32:05.494Z,927.3
2017-11-14T02:32:18.446Z,927.34
2017-11-14T02:32:31.943Z,927.31
2017-11-14T02:32:45.363Z,927.32
2017-11-14T02:32:58.802Z,927.29
2017-11-14T02:33:12.272Z,927.34
2017-11-14T02:33:25.788Z,927.33
2017-11-14T02:33:39.245Z,927.36
2017-11-14T02:33:52.100Z,927.32
2017-11-14T02:34:05.011Z,927.33
2017-11-14T02:34:17.943Z,927.34
2017-11-14T02:34:31.348Z,927.32
2017-11-14T02:34:45.041Z,927.3
2017-11-14T02:34:57.875Z,927.33
2017-11-14T02:35:10.751Z,927.3
2017-11-14T02:35:23.668Z,927.31
2017-11-14T02:35:36.604Z,927.33
2017-11-14T02:35:50.098Z,927.33
2017-11-14T02:36:03.561Z,927.31
2017-11-14T02:36:17.042Z,927.33
2017-11-14T02:36:30.499Z,927.37
2017-11-14T02:36:43.935Z,927.32
2017-11-14T02:36:57.417Z,927.34
2017-11-14T02:37:10.898Z,927.29
2017-11-14T02:37:23.809Z,927.33
2017-11-14T02:37:37.380Z,927.34
2017-11-14T02:37:50.909Z,927.34
2017-11-14T02:38:04.381Z,927.34
2017-11-14T02:38:17.950Z,927.3
2017-11-14T02:38:31.398Z,927.37
2017-11-14T02:38:44.871Z,927.33
2017-11-14T02:38:58.399Z,927.32
2017-11-14T02:39:11.280Z,927.35
2017-11-14T02:39:24.789Z,927.35
2017-11-14T02:39:38.304Z,927.34
2017-11-14T02:39:51.788Z,927.36
2017-11-14T02:40:04.658Z,927.34
2017-11-14T02:40:18.181Z,927.36
2017-11-14T02:40:31.639Z,927.3
2017-11-14T02:40:45.130Z,927.35
2017-11-14T02:40:58.582Z,927.31
2017-11-14T02:41:12.057Z,927.35
2017-11-14T02:41:25.531Z,927.3
2017-11-14T02:41:39.087Z,927.36
2017-11-14T02:41:52.035Z,927.38
2017-11-14T02:42:04.963Z,927.33
2017-11-14T02:42:18.425Z,927.33
2017-11-14T02:42:31.909Z,927.33
2017-11-14T02:42:45.375Z,927.33
2017-11-14T02:42:58.882Z,927.32
2017-11-14T02:43:12.336Z,927.34
2017-11-14T02:43:25.816Z,927.34
2017-11-14T02:43:38.768Z,927.34
2017-11-14T02:43:52.315Z,927.34
2017-11-14T02:44:05.881Z,927.33
2017-11-14T02:44:18.783Z,927.33
2017-11-14T02:44:32.222Z,927.32
2017-11-14T02:44:47.158Z,927.32
2017-11-14T02:45:00.666Z,927.33
2017-11-14T02:45:14.179Z,927.33
2017-11-14T02:45:27.693Z,927.29